Latest Weather Observations for Bundaberg

IDQ60801

Issued at 7:07 pm EST Wednesday 28 January 2015 (issued every 30 minutes, with the page automatically refreshed every 10 minutes)

About weather observations | Map of weather stations | Latest weather observations for QLD | Other Formats
Station Details ID: 039128 Name: BUNDABERG AERO Lat: -24.91 Lon: 152.32 Height: 30.82 m
Data from the previous 72 hours. | See also: Recent months at Bundaberg
Date/Time
EST
Temp
°C
App
Temp
°C
Dew
Point
Rel
Hum
%
Delta-T
°C
Wind Press
QNH
hPa
Press
MSL
hPa
Rain
since 9 am
mm
Dir
 
Spd
km/h
Gust
km/h
Spd
kts
Gust
kts
28/07:00pm 22.7 23.2 20.0 85 1.7 SSE 17 22 9 12 1005.7 1005.5 -
28/06:30pm 23.3 23.7 19.9 81 2.2 SSE 17 26 9 14 1005.6 1005.4 -
28/06:00pm 23.6 23.6 20.1 81 2.3 SSE 20 26 11 14 1005.2 1005.0 -
28/05:30pm 24.2 24.6 20.9 82 2.2 SSE 20 30 11 16 1004.7 1004.5 -
28/05:00pm 24.5 24.7 21.4 83 2.1 SSE 22 33 12 18 1003.8 1003.6 -
28/04:30pm 24.8 25.5 21.5 82 2.2 SSE 20 28 11 15 1004.0 1003.8 -
28/04:00pm 25.4 27.7 21.3 78 2.7 ESE 11 17 6 9 1003.7 1003.5 -
28/03:30pm 25.8 25.6 20.6 73 3.4 SE 22 28 12 15 1003.6 1003.4 -
28/03:00pm 26.9 26.7 19.8 65 4.6 SE 20 30 11 16 1004.0 1003.8 -
28/02:30pm 26.8 26.6 20.6 69 4.1 SE 22 32 12 17 1003.8 1003.6 -
28/02:00pm 25.7 24.8 20.7 74 3.3 SE 26 35 14 19 1003.9 1003.7 -
28/01:30pm 24.9 25.5 21.4 81 2.3 SSE 20 28 11 15 1004.1 1003.9 -
28/01:00pm 24.9 25.1 20.6 77 2.8 SSE 20 32 11 17 1004.2 1004.0 -
28/12:30pm 25.4 25.9 20.9 76 3.0 SSE 19 30 10 16 1004.3 1004.1 -
28/12:00pm - - - - - - - - - - 1004.6 1004.4 -
28/11:30am - - - - - - - - - - 1004.6 1004.4 -
28/11:00am - - - - - - - - - - 1004.9 1004.7 -
28/10:30am - - - - - - - - - - 1005.0 1004.8 -
28/10:00am - - - - - - - - - - 1005.1 1004.9 -
28/09:30am - - - - - - - - - - 1004.8 1004.6 -
28/09:00am - - - - - - - - - - 1005.0 1004.8 -
28/08:30am - - - - - - - - - - 1004.9 1004.7 -
28/08:00am - - - - - - - - - - 1004.8 1004.6 -
28/07:30am - - - - - - - - - - 1004.6 1004.4 -
28/07:00am - - - - - - - - - - 1004.3 1004.1 -
28/06:30am - - - - - - - - - - 1003.9 1003.7 -
28/06:00am - - - - - - - - - - 1003.7 1003.5 -
28/05:30am - - - - - - - - - - 1003.1 1002.9 -
28/05:00am - - - - - - - - - - 1003.0 1002.8 -
28/04:30am - - - - - - - - - - 1003.0 1002.8 -
28/04:00am - - - - - - - - - - 1003.0 1002.8 -
28/03:30am - - - - - - - - - - 1003.3 1003.1 -
28/03:00am - - - - - - - - - - 1003.5 1003.3 -
28/02:30am - - - - - - - - - - 1003.3 1003.1 -
28/02:00am - - - - - - - - - - 1003.7 1003.5 -
28/01:30am - - - - - SE 13 19 7 10 1004.0 1003.8 0.6
28/01:00am 24.6 26.3 22.3 87 1.5 SE 17 20 9 11 1004.2 1004.0 0.6
28/12:30am 25.1 26.9 21.8 82 2.2 ESE 15 19 8 10 1004.6 1004.4 0.4
28/12:00am 25.9 27.9 21.6 77 2.9 ESE 13 17 7 9 1005.1 1004.9 0.0
 
Date/Time
EST
Temp
°C
App
Temp
°C
Dew
Point
Rel
Hum
%
Delta-T
°C
Wind Press
QNH
hPa
Press
MSL
hPa
Rain
since 9 am
mm
Dir
 
Spd
km/h
Gust
km/h
Spd
kts
Gust
kts
27/11:30pm 25.8 27.6 21.2 76 3.0 E 13 17 7 9 1005.1 1004.9 0.0
27/11:00pm 26.0 28.6 21.2 75 3.2 ESE 9 13 5 7 1005.5 1005.3 0.0
27/10:30pm 26.1 28.1 21.5 76 3.1 ESE 13 17 7 9 1005.6 1005.4 0.0
27/10:00pm 26.1 27.3 21.5 76 3.1 E 17 22 9 12 1005.2 1005.0 0.0
27/09:30pm 26.2 27.2 21.8 77 2.9 E 19 26 10 14 1005.0 1004.8 0.0
27/09:00pm 26.3 27.7 21.9 77 3.0 E 17 24 9 13 1005.2 1005.0 0.0
27/08:30pm 26.4 27.3 21.6 75 3.2 ESE 19 26 10 14 1005.4 1005.2 0.0
27/08:00pm 26.5 27.7 21.5 74 3.3 E 17 24 9 13 1005.2 1005.0 0.0
27/07:30pm 26.7 27.1 21.0 71 3.8 E 20 24 11 13 1005.1 1004.9 0.0
27/07:00pm 26.9 27.6 21.6 72 3.5 ESE 20 28 11 15 1004.8 1004.6 0.0
27/06:30pm 27.3 27.6 21.6 71 3.8 ESE 22 35 12 19 1004.3 1004.1 0.0
27/06:00pm 28.0 27.3 21.1 66 4.6 ESE 26 37 14 20 1003.5 1003.3 0.0
27/05:30pm 29.0 29.0 21.7 64 4.9 ESE 24 33 13 18 1003.3 1003.1 0.0
27/05:00pm 28.7 28.2 20.7 62 5.3 ESE 24 33 13 18 1003.3 1003.1 0.0
27/04:30pm 28.8 26.4 20.0 59 5.8 ESE 32 41 17 22 1003.2 1003.0 0.0
27/04:00pm 30.1 27.5 19.5 53 7.0 E 32 41 17 22 1003.2 1003.0 0.0
27/03:30pm 30.2 27.6 19.6 53 6.9 ESE 32 39 17 21 1003.3 1003.1 0.0
27/03:05pm 30.4 28.5 19.4 51 7.2 E 28 50 15 27 1003.3 1003.1 0.0
27/03:00pm 30.5 29.3 20.1 53 6.9 E 26 37 14 20 1003.4 1003.2 0.0
27/02:30pm 30.0 28.8 20.8 57 6.1 ESE 28 37 15 20 1003.9 1003.7 0.0
27/02:00pm 29.9 28.3 20.7 57 6.1 ESE 30 37 16 20 1004.1 1003.9 0.0
27/01:30pm 30.1 29.5 20.4 56 6.4 E 24 33 13 18 1004.3 1004.1 0.0
27/01:00pm 30.0 28.9 20.3 56 6.4 E 26 35 14 19 1004.5 1004.3 0.0
27/12:30pm 30.0 30.7 22.2 63 5.3 ESE 22 30 12 16 1004.9 1004.7 0.0
27/12:00pm 29.5 29.7 22.0 64 5.1 ESE 24 32 13 17 1005.5 1005.3 0.0
27/11:30am 29.6 29.9 22.3 65 5.0 E 24 32 13 17 1005.9 1005.7 0.0
27/11:00am 29.9 30.4 22.6 65 5.0 ESE 24 32 13 17 1006.1 1005.9 0.0
27/10:30am 29.2 30.1 22.7 68 4.4 ESE 22 30 12 16 1006.4 1006.2 0.0
27/10:00am 29.7 30.7 22.9 67 4.7 ESE 22 30 12 16 1006.2 1006.0 0.0
27/09:30am 28.9 29.8 22.6 69 4.3 ESE 22 28 12 15 1006.6 1006.4 0.0
27/09:00am 29.3 30.8 23.0 69 4.3 ESE 20 26 11 14 1006.5 1006.3 5.2
27/08:30am 28.6 29.4 23.1 72 3.8 ESE 24 32 13 17 1006.0 1005.8 5.2
27/08:00am 28.1 28.3 22.8 73 3.6 ESE 26 32 14 17 1005.7 1005.5 5.2
27/07:30am 27.3 28.1 23.1 78 2.9 ESE 24 30 13 16 1005.7 1005.5 5.2
27/07:00am 27.1 28.9 23.3 80 2.6 ESE 19 22 10 12 1005.6 1005.4 5.2
27/06:30am 26.3 30.2 24.3 89 1.4 SE 11 13 6 7 1005.1 1004.9 5.2
27/06:00am 25.3 29.1 24.1 93 0.8 SE 11 15 6 8 1005.2 1005.0 5.2
27/05:30am 25.3 29.8 23.9 92 1.0 SSE 7 9 4 5 1005.5 1005.3 5.2
27/05:00am 25.4 31.5 24.4 94 0.7 CALM 0 0 0 0 1005.7 1005.5 5.2
27/04:30am 25.4 29.8 24.4 94 0.7 WSW 9 11 5 6 1005.6 1005.4 5.2
27/04:00am 25.5 30.6 24.1 92 1.0 SW 4 7 2 4 1005.3 1005.1 5.2
27/03:30am 25.5 30.2 23.9 91 1.1 S 6 7 3 4 1005.0 1004.8 5.2
27/03:00am 25.6 30.1 23.6 89 1.4 SE 6 9 3 5 1004.9 1004.7 5.2
27/02:30am 26.0 30.1 24.0 89 1.4 ESE 9 15 5 8 1004.6 1004.4 5.0
27/02:00am 26.0 29.7 24.6 92 1.0 SE 13 17 7 9 1004.9 1004.7 4.8
27/01:30am 26.1 30.4 24.3 90 1.2 S 9 13 5 7 1005.4 1005.2 4.8
27/01:00am 26.5 30.6 24.5 89 1.4 SE 11 17 6 9 1005.3 1005.1 4.8
27/12:30am 26.4 30.5 24.6 90 1.2 ESE 11 15 6 8 1005.4 1005.2 4.6
27/12:00am 27.0 30.0 24.6 87 1.7 ESE 17 20 9 11 1005.6 1005.4 4.0
 
Date/Time
EST
Temp
°C
App
Temp
°C
Dew
Point
Rel
Hum
%
Delta-T
°C
Wind Press
QNH
hPa
Press
MSL
hPa
Rain
since 9 am
mm
Dir
 
Spd
km/h
Gust
km/h
Spd
kts
Gust
kts
26/11:30pm 27.0 30.0 24.6 87 1.7 ESE 17 26 9 14 1005.9 1005.7 4.0
26/11:00pm 27.2 30.2 24.6 86 1.8 ESE 17 26 9 14 1006.3 1006.1 4.0
26/10:30pm 27.2 31.3 25.2 89 1.4 ESE 13 17 7 9 1006.3 1006.1 4.0
26/10:00pm 27.2 30.6 25.2 89 1.4 SE 17 24 9 13 1006.5 1006.3 4.0
26/09:30pm 27.1 30.0 25.1 89 1.4 E 19 24 10 13 1005.9 1005.7 4.0
26/09:00pm 27.3 31.6 26.1 93 0.9 NE 15 22 8 12 1005.7 1005.5 4.0
26/08:30pm 26.4 30.0 25.0 92 1.0 SE 15 19 8 10 1006.2 1006.0 4.0
26/08:00pm 26.6 31.7 24.6 89 1.4 NNE 6 7 3 4 1006.5 1006.3 3.6
26/07:30pm 26.3 30.1 24.7 91 1.1 ENE 13 19 7 10 1005.5 1005.3 3.4
26/07:00pm 24.9 28.6 23.3 91 1.1 SSW 9 13 5 7 1005.9 1005.7 0.4
26/06:30pm 24.8 25.8 21.1 80 2.4 SSW 17 28 9 15 1005.9 1005.7 0.0
26/06:00pm 29.1 32.6 25.5 81 2.5 E 17 24 9 13 1005.0 1004.8 0.0
26/05:30pm 29.7 32.4 25.0 76 3.3 ENE 20 28 11 15 1004.3 1004.1 0.0
26/05:00pm 30.5 32.7 24.2 69 4.4 ENE 20 28 11 15 1003.7 1003.5 0.0
26/04:30pm 30.8 31.3 22.7 62 5.5 NE 24 33 13 18 1002.9 1002.7 0.0
26/04:00pm 32.2 32.7 22.0 55 7.0 ENE 22 32 12 17 1003.2 1003.0 0.0
26/03:30pm 32.9 32.9 21.7 51 7.6 ENE 24 32 13 17 1003.1 1002.9 0.0
26/03:00pm 33.3 34.0 21.5 50 8.0 E 20 26 11 14 1003.4 1003.2 0.0
26/02:30pm 33.0 34.2 22.1 52 7.4 E 19 26 10 14 1003.6 1003.4 0.0
26/02:00pm 33.0 35.0 23.6 57 6.6 ENE 19 24 10 13 1003.8 1003.6 0.0
26/01:30pm 32.4 35.1 24.7 64 5.4 E 19 24 10 13 1004.2 1004.0 0.0
26/01:00pm 32.0 34.7 24.1 63 5.5 E 17 24 9 13 1004.3 1004.1 0.0
26/12:30pm 32.5 35.7 24.3 62 5.7 ENE 15 22 8 12 1004.6 1004.4 0.0
26/12:00pm 33.1 37.5 23.4 56 6.7 SE 6 11 3 6 1004.8 1004.6 0.0
26/11:30am 32.4 36.1 23.3 58 6.3 ENE 9 13 5 7 1005.2 1005.0 0.0
26/11:00am 31.8 36.6 22.8 59 6.2 NNE 2 7 1 4 1005.5 1005.3 0.0
26/10:30am 31.3 35.8 22.9 61 5.8 ENE 4 7 2 4 1005.8 1005.6 0.0
26/10:00am 30.8 34.8 22.7 62 5.6 S 6 9 3 5 1006.0 1005.8 0.0
26/09:30am 30.4 34.4 22.8 64 5.2 SSE 6 11 3 6 1006.1 1005.9 0.0
26/09:00am 29.4 33.0 22.1 65 4.9 ESE 6 11 3 6 1006.2 1006.0 1.0
26/08:30am 28.7 32.3 22.4 68 4.3 SSE 7 13 4 7 1006.4 1006.2 1.0
26/08:00am 27.9 31.7 22.4 72 3.7 E 6 9 3 5 1006.4 1006.2 1.0
26/07:30am 25.9 30.2 22.6 82 2.2 SSE 4 7 2 4 1006.4 1006.2 1.0
26/07:00am 25.0 28.2 22.3 85 1.8 SE 9 13 5 7 1006.4 1006.2 1.0
26/06:30am 24.5 27.8 22.6 89 1.3 E 9 9 5 5 1006.3 1006.1 1.0
26/06:00am 24.1 29.1 22.5 91 1.1 CALM 0 0 0 0 1006.0 1005.8 1.0
26/05:30am 23.4 28.2 22.2 93 0.8 CALM 0 0 0 0 1005.4 1005.2 1.0
26/05:00am 23.5 27.0 21.9 91 1.1 S 6 7 3 4 1005.3 1005.1 1.0
26/04:30am 23.5 26.6 22.1 92 0.9 W 9 11 5 6 1005.0 1004.8 1.0
26/04:00am 23.6 27.2 22.4 93 0.8 W 7 9 4 5 1004.8 1004.6 1.0
26/03:30am 23.8 28.6 22.2 91 1.1 CALM 0 0 0 0 1004.8 1004.6 1.0
26/03:00am 23.9 27.2 22.5 92 0.9 SSW 9 13 5 7 1004.4 1004.2 1.0
26/02:30am 23.9 27.2 22.5 92 0.9 SSW 9 11 5 6 1004.7 1004.5 1.0
26/02:00am 24.0 28.9 22.3 90 1.1 CALM 0 0 0 0 1004.7 1004.5 1.0
26/01:30am 24.1 27.7 22.4 90 1.1 SW 7 9 4 5 1005.2 1005.0 1.0
26/01:00am 24.4 29.3 22.3 88 1.4 CALM 0 0 0 0 1005.7 1005.5 1.0
26/12:30am 24.2 27.9 22.3 89 1.3 ENE 6 11 3 6 1006.1 1005.9 1.0
26/12:00am 24.1 28.2 21.6 86 1.7 WSW 2 7 1 4 1006.2 1006.0 1.0
 
Date/Time
EST
Temp
°C
App
Temp
°C
Dew
Point
Rel
Hum
%
Delta-T
°C
Wind Press
QNH
hPa
Press
MSL
hPa
Rain
since 9 am
mm
Dir
 
Spd
km/h
Gust
km/h
Spd
kts
Gust
kts
25/11:30pm 24.1 27.7 22.0 88 1.4 WSW 6 11 3 6 1006.6 1006.4 1.0
25/11:00pm 24.0 27.0 22.6 92 0.9 WNW 11 15 6 8 1006.2 1006.0 1.0
25/10:30pm 24.3 28.3 22.7 91 1.1 WSW 6 9 3 5 1006.7 1006.5 1.0
25/10:00pm 24.4 27.9 22.8 91 1.1 WNW 9 11 5 6 1006.0 1005.8 1.0
25/09:30pm 25.0 27.7 22.9 88 1.4 N 13 17 7 9 1005.5 1005.3 1.0
25/09:00pm 24.5 26.5 22.2 87 1.5 NNE 15 19 8 10 1005.3 1005.1 1.0
25/08:30pm 24.7 26.6 22.0 85 1.8 NNW 15 17 8 9 1005.2 1005.0 0.8
25/08:00pm 25.5 25.1 21.0 76 3.0 NNW 24 32 13 17 1005.3 1005.1 0.8
25/07:30pm 25.5 26.6 21.2 77 2.8 WNW 17 20 9 11 1006.1 1005.9 0.6

Other Formats:

Comma delimited format used in spreadsheet applications
http://www.bom.gov.au/fwo/IDQ60801/IDQ60801.94387.axf

JavaScript Object Notation format (JSON) in row-major order
http://www.bom.gov.au/fwo/IDQ60801/IDQ60801.94387.json